sensor_id;sensor_type;location;lat;lon;timestamp;temperature;humidity
29817;DHT22;16805;52.956;5.906;2022-08-25T00:01:11;22.30;99.90
29817;DHT22;16805;52.956;5.906;2022-08-25T00:03:39;22.30;99.90
29817;DHT22;16805;52.956;5.906;2022-08-25T00:06:06;22.30;99.90
29817;DHT22;16805;52.956;5.906;2022-08-25T00:08:32;22.30;99.90
29817;DHT22;16805;52.956;5.906;2022-08-25T00:11:00;22.20;99.90
29817;DHT22;16805;52.956;5.906;2022-08-25T00:13:27;22.30;99.90
29817;DHT22;16805;52.956;5.906;2022-08-25T00:15:53;22.20;99.90
29817;DHT22;16805;52.956;5.906;2022-08-25T00:18:19;22.20;99.90
29817;DHT22;16805;52.956;5.906;2022-08-25T00:20:46;22.20;99.90
29817;DHT22;16805;52.956;5.906;2022-08-25T00:23:11;22.20;99.90
29817;DHT22;16805;52.956;5.906;2022-08-25T00:25:37;22.10;99.90
29817;DHT22;16805;52.956;5.906;2022-08-25T00:28:03;22.10;99.90
29817;DHT22;16805;52.956;5.906;2022-08-25T00:30:28;22.10;99.90
29817;DHT22;16805;52.956;5.906;2022-08-25T00:32:54;22.00;99.90
29817;DHT22;16805;52.956;5.906;2022-08-25T00:35:20;22.10;99.90
29817;DHT22;16805;52.956;5.906;2022-08-25T00:37:45;22.00;99.90
29817;DHT22;16805;52.956;5.906;2022-08-25T00:40:11;22.00;99.90
29817;DHT22;16805;52.956;5.906;2022-08-25T00:42:37;21.90;99.90
29817;DHT22;16805;52.956;5.906;2022-08-25T00:45:05;21.90;99.90
29817;DHT22;16805;52.956;5.906;2022-08-25T00:47:31;21.90;99.90
29817;DHT22;16805;52.956;5.906;2022-08-25T00:49:58;21.90;99.90
29817;DHT22;16805;52.956;5.906;2022-08-25T00:52:32;21.80;99.90
29817;DHT22;16805;52.956;5.906;2022-08-25T00:55:23;21.80;99.90
29817;DHT22;16805;52.956;5.906;2022-08-25T00:58:00;21.80;99.90
29817;DHT22;16805;52.956;5.906;2022-08-25T01:00:36;21.80;99.90
29817;DHT22;16805;52.956;5.906;2022-08-25T01:03:03;21.90;99.90
29817;DHT22;16805;52.956;5.906;2022-08-25T01:05:29;21.80;99.90
29817;DHT22;16805;52.956;5.906;2022-08-25T01:07:57;21.70;99.90
29817;DHT22;16805;52.956;5.906;2022-08-25T01:10:25;21.70;99.90
29817;DHT22;16805;52.956;5.906;2022-08-25T01:12:51;21.70;99.90
29817;DHT22;16805;52.956;5.906;2022-08-25T01:15:20;21.60;99.90
29817;DHT22;16805;52.956;5.906;2022-08-25T01:17:48;21.60;99.90
29817;DHT22;16805;52.956;5.906;2022-08-25T01:20:15;21.60;99.90
29817;DHT22;16805;52.956;5.906;2022-08-25T01:22:44;21.60;99.90
29817;DHT22;16805;52.956;5.906;2022-08-25T01:25:21;21.60;99.90
29817;DHT22;16805;52.956;5.906;2022-08-25T01:27:47;21.60;99.90
29817;DHT22;16805;52.956;5.906;2022-08-25T01:30:13;21.50;99.90
29817;DHT22;16805;52.956;5.906;2022-08-25T01:32:39;21.50;99.90
29817;DHT22;16805;52.956;5.906;2022-08-25T01:35:23;21.50;99.90
29817;DHT22;16805;52.956;5.906;2022-08-25T01:37:49;21.50;99.90
29817;DHT22;16805;52.956;5.906;2022-08-25T01:40:15;21.50;99.90
29817;DHT22;16805;52.956;5.906;2022-08-25T01:45:34;21.50;99.90
29817;DHT22;16805;52.956;5.906;2022-08-25T01:48:00;21.50;99.90
29817;DHT22;16805;52.956;5.906;2022-08-25T01:50:26;21.40;99.90
29817;DHT22;16805;52.956;5.906;2022-08-25T01:55:28;21.40;99.90
29817;DHT22;16805;52.956;5.906;2022-08-25T01:57:54;21.40;99.90
29817;DHT22;16805;52.956;5.906;2022-08-25T02:00:21;21.40;99.90
29817;DHT22;16805;52.956;5.906;2022-08-25T02:02:48;21.30;99.90
29817;DHT22;16805;52.956;5.906;2022-08-25T02:05:15;21.40;99.90
29817;DHT22;16805;52.956;5.906;2022-08-25T02:07:42;21.30;99.90
29817;DHT22;16805;52.956;5.906;2022-08-25T02:10:09;21.30;99.90
29817;DHT22;16805;52.956;5.906;2022-08-25T02:12:35;21.30;99.90
29817;DHT22;16805;52.956;5.906;2022-08-25T02:15:03;21.30;99.90
29817;DHT22;16805;52.956;5.906;2022-08-25T02:17:30;21.20;99.90
29817;DHT22;16805;52.956;5.906;2022-08-25T02:19:56;21.20;99.90
29817;DHT22;16805;52.956;5.906;2022-08-25T02:22:22;21.20;99.90
29817;DHT22;16805;52.956;5.906;2022-08-25T02:24:48;21.20;99.90
29817;DHT22;16805;52.956;5.906;2022-08-25T02:27:14;21.20;99.90
29817;DHT22;16805;52.956;5.906;2022-08-25T02:29:40;21.10;99.90
29817;DHT22;16805;52.956;5.906;2022-08-25T02:32:06;21.20;99.90
29817;DHT22;16805;52.956;5.906;2022-08-25T02:34:32;21.10;99.90
29817;DHT22;16805;52.956;5.906;2022-08-25T02:36:58;21.10;99.90
29817;DHT22;16805;52.956;5.906;2022-08-25T02:39:23;21.10;99.90
29817;DHT22;16805;52.956;5.906;2022-08-25T02:41:49;21.10;99.90
29817;DHT22;16805;52.956;5.906;2022-08-25T02:44:34;21.10;99.90
29817;DHT22;16805;52.956;5.906;2022-08-25T02:46:59;21.10;99.90
29817;DHT22;16805;52.956;5.906;2022-08-25T02:49:25;21.10;99.90
29817;DHT22;16805;52.956;5.906;2022-08-25T02:51:50;21.10;99.90
29817;DHT22;16805;52.956;5.906;2022-08-25T02:54:16;21.10;99.90
29817;DHT22;16805;52.956;5.906;2022-08-25T02:56:42;21.10;99.90
29817;DHT22;16805;52.956;5.906;2022-08-25T02:59:08;21.00;99.90
29817;DHT22;16805;52.956;5.906;2022-08-25T03:01:33;21.10;99.90
29817;DHT22;16805;52.956;5.906;2022-08-25T03:04:00;21.10;99.90
29817;DHT22;16805;52.956;5.906;2022-08-25T03:06:26;21.00;99.90
29817;DHT22;16805;52.956;5.906;2022-08-25T03:08:52;21.10;99.90
29817;DHT22;16805;52.956;5.906;2022-08-25T03:11:18;21.10;99.90
29817;DHT22;16805;52.956;5.906;2022-08-25T03:13:44;21.00;99.90
29817;DHT22;16805;52.956;5.906;2022-08-25T03:16:10;21.00;99.90
29817;DHT22;16805;52.956;5.906;2022-08-25T03:18:36;21.00;99.90
29817;DHT22;16805;52.956;5.906;2022-08-25T03:21:03;21.00;99.90
29817;DHT22;16805;52.956;5.906;2022-08-25T03:23:28;21.00;99.90
29817;DHT22;16805;52.956;5.906;2022-08-25T03:25:54;21.00;99.90
29817;DHT22;16805;52.956;5.906;2022-08-25T03:28:39;21.00;99.90
29817;DHT22;16805;52.956;5.906;2022-08-25T03:31:06;21.00;99.90
29817;DHT22;16805;52.956;5.906;2022-08-25T03:33:32;20.90;99.90
29817;DHT22;16805;52.956;5.906;2022-08-25T03:35:58;20.90;99.90
29817;DHT22;16805;52.956;5.906;2022-08-25T03:38:24;21.00;99.90
29817;DHT22;16805;52.956;5.906;2022-08-25T03:40:51;20.90;99.90
29817;DHT22;16805;52.956;5.906;2022-08-25T03:43:18;20.90;99.90
29817;DHT22;16805;52.956;5.906;2022-08-25T03:45:44;20.90;99.90
29817;DHT22;16805;52.956;5.906;2022-08-25T03:48:10;20.90;99.90
29817;DHT22;16805;52.956;5.906;2022-08-25T03:50:36;20.90;99.90
29817;DHT22;16805;52.956;5.906;2022-08-25T03:53:07;21.00;99.90
29817;DHT22;16805;52.956;5.906;2022-08-25T03:55:33;21.00;99.90
29817;DHT22;16805;52.956;5.906;2022-08-25T03:57:58;20.90;99.90
29817;DHT22;16805;52.956;5.906;2022-08-25T04:00:24;20.90;99.90
29817;DHT22;16805;52.956;5.906;2022-08-25T04:02:50;20.90;99.90
29817;DHT22;16805;52.956;5.906;2022-08-25T04:05:15;20.90;99.90
29817;DHT22;16805;52.956;5.906;2022-08-25T04:07:41;20.90;99.90
29817;DHT22;16805;52.956;5.906;2022-08-25T04:10:08;20.90;99.90
29817;DHT22;16805;52.956;5.906;2022-08-25T04:12:35;20.90;99.90
29817;DHT22;16805;52.956;5.906;2022-08-25T04:15:03;20.90;99.90
29817;DHT22;16805;52.956;5.906;2022-08-25T04:17:29;20.90;99.90
29817;DHT22;16805;52.956;5.906;2022-08-25T04:19:54;20.90;99.90
29817;DHT22;16805;52.956;5.906;2022-08-25T04:22:21;20.90;99.90
29817;DHT22;16805;52.956;5.906;2022-08-25T04:24:47;20.90;99.90
29817;DHT22;16805;52.956;5.906;2022-08-25T04:27:13;20.90;99.90
29817;DHT22;16805;52.956;5.906;2022-08-25T04:29:38;20.80;99.90
29817;DHT22;16805;52.956;5.906;2022-08-25T04:32:04;20.80;99.90
29817;DHT22;16805;52.956;5.906;2022-08-25T04:34:30;20.80;99.90
29817;DHT22;16805;52.956;5.906;2022-08-25T04:36:56;20.80;99.90
29817;DHT22;16805;52.956;5.906;2022-08-25T04:39:22;20.80;99.90
29817;DHT22;16805;52.956;5.906;2022-08-25T04:41:49;20.80;99.90
29817;DHT22;16805;52.956;5.906;2022-08-25T04:44:16;20.70;99.90
29817;DHT22;16805;52.956;5.906;2022-08-25T04:46:42;20.70;99.90
29817;DHT22;16805;52.956;5.906;2022-08-25T04:49:08;20.70;99.90
29817;DHT22;16805;52.956;5.906;2022-08-25T04:51:37;20.70;99.90
29817;DHT22;16805;52.956;5.906;2022-08-25T04:54:07;20.70;99.90
29817;DHT22;16805;52.956;5.906;2022-08-25T04:56:33;20.70;99.90
29817;DHT22;16805;52.956;5.906;2022-08-25T04:59:05;20.70;99.90
29817;DHT22;16805;52.956;5.906;2022-08-25T05:01:32;20.70;99.90
29817;DHT22;16805;52.956;5.906;2022-08-25T05:04:00;20.70;99.90
29817;DHT22;16805;52.956;5.906;2022-08-25T05:06:27;20.80;99.90
29817;DHT22;16805;52.956;5.906;2022-08-25T05:08:54;20.80;99.90
29817;DHT22;16805;52.956;5.906;2022-08-25T05:11:21;20.80;99.90
29817;DHT22;16805;52.956;5.906;2022-08-25T05:13:49;20.80;99.90
29817;DHT22;16805;52.956;5.906;2022-08-25T05:16:16;20.90;99.90
29817;DHT22;16805;52.956;5.906;2022-08-25T05:18:42;20.90;99.90
29817;DHT22;16805;52.956;5.906;2022-08-25T05:21:12;20.90;99.90
29817;DHT22;16805;52.956;5.906;2022-08-25T05:23:39;21.00;99.90
29817;DHT22;16805;52.956;5.906;2022-08-25T05:26:07;21.10;99.90
29817;DHT22;16805;52.956;5.906;2022-08-25T05:28:34;21.10;99.90
29817;DHT22;16805;52.956;5.906;2022-08-25T05:31:01;21.20;99.90
29817;DHT22;16805;52.956;5.906;2022-08-25T05:33:27;21.20;99.90
29817;DHT22;16805;52.956;5.906;2022-08-25T05:35:53;21.30;99.90
29817;DHT22;16805;52.956;5.906;2022-08-25T05:38:20;21.40;99.90
29817;DHT22;16805;52.956;5.906;2022-08-25T05:40:46;21.50;99.90
29817;DHT22;16805;52.956;5.906;2022-08-25T05:43:11;21.60;99.90
29817;DHT22;16805;52.956;5.906;2022-08-25T05:45:39;21.70;99.90
29817;DHT22;16805;52.956;5.906;2022-08-25T05:48:05;21.80;99.90
29817;DHT22;16805;52.956;5.906;2022-08-25T05:50:30;22.00;99.90
29817;DHT22;16805;52.956;5.906;2022-08-25T05:52:56;22.00;99.90
29817;DHT22;16805;52.956;5.906;2022-08-25T05:55:22;22.20;99.90
29817;DHT22;16805;52.956;5.906;2022-08-25T05:57:47;22.30;99.90
29817;DHT22;16805;52.956;5.906;2022-08-25T06:00:14;22.40;99.90
29817;DHT22;16805;52.956;5.906;2022-08-25T06:02:39;22.50;99.90
29817;DHT22;16805;52.956;5.906;2022-08-25T06:05:07;22.60;99.90
29817;DHT22;16805;52.956;5.906;2022-08-25T06:07:33;22.70;99.90
29817;DHT22;16805;52.956;5.906;2022-08-25T06:10:18;22.90;99.90
29817;DHT22;16805;52.956;5.906;2022-08-25T06:12:45;23.00;99.90
29817;DHT22;16805;52.956;5.906;2022-08-25T06:15:13;23.10;99.90
29817;DHT22;16805;52.956;5.906;2022-08-25T06:17:39;23.20;99.90
29817;DHT22;16805;52.956;5.906;2022-08-25T06:20:10;23.30;99.90
29817;DHT22;16805;52.956;5.906;2022-08-25T06:22:36;23.40;99.90
29817;DHT22;16805;52.956;5.906;2022-08-25T06:25:03;23.60;99.90
29817;DHT22;16805;52.956;5.906;2022-08-25T06:27:28;23.70;99.90
29817;DHT22;16805;52.956;5.906;2022-08-25T06:29:54;23.70;99.90
29817;DHT22;16805;52.956;5.906;2022-08-25T06:32:20;23.80;99.90
29817;DHT22;16805;52.956;5.906;2022-08-25T06:34:45;23.90;99.90
29817;DHT22;16805;52.956;5.906;2022-08-25T06:37:11;24.00;99.90
29817;DHT22;16805;52.956;5.906;2022-08-25T06:39:36;24.10;99.90
29817;DHT22;16805;52.956;5.906;2022-08-25T06:42:02;24.30;99.90
29817;DHT22;16805;52.956;5.906;2022-08-25T06:44:28;24.40;99.90
29817;DHT22;16805;52.956;5.906;2022-08-25T06:46:54;24.40;99.90
29817;DHT22;16805;52.956;5.906;2022-08-25T06:49:20;24.60;99.90
29817;DHT22;16805;52.956;5.906;2022-08-25T06:51:46;24.70;99.90
29817;DHT22;16805;52.956;5.906;2022-08-25T06:54:12;24.70;99.90
29817;DHT22;16805;52.956;5.906;2022-08-25T06:56:41;24.80;99.90
29817;DHT22;16805;52.956;5.906;2022-08-25T06:59:08;24.90;99.90
29817;DHT22;16805;52.956;5.906;2022-08-25T07:01:34;25.00;99.90
29817;DHT22;16805;52.956;5.906;2022-08-25T07:04:02;25.10;99.90
29817;DHT22;16805;52.956;5.906;2022-08-25T07:06:30;25.30;99.90
29817;DHT22;16805;52.956;5.906;2022-08-25T07:08:57;25.40;99.90
29817;DHT22;16805;52.956;5.906;2022-08-25T07:11:22;25.50;99.90
29817;DHT22;16805;52.956;5.906;2022-08-25T07:13:49;25.60;99.90
29817;DHT22;16805;52.956;5.906;2022-08-25T07:16:17;25.80;99.90
29817;DHT22;16805;52.956;5.906;2022-08-25T07:18:44;25.90;99.90
29817;DHT22;16805;52.956;5.906;2022-08-25T07:21:11;25.90;99.90
29817;DHT22;16805;52.956;5.906;2022-08-25T07:23:37;26.00;99.90
29817;DHT22;16805;52.956;5.906;2022-08-25T07:26:09;26.10;99.90
29817;DHT22;16805;52.956;5.906;2022-08-25T07:28:35;26.10;99.90
29817;DHT22;16805;52.956;5.906;2022-08-25T07:31:00;26.30;99.90
29817;DHT22;16805;52.956;5.906;2022-08-25T07:33:26;26.30;99.90
29817;DHT22;16805;52.956;5.906;2022-08-25T07:35:52;26.50;99.90
29817;DHT22;16805;52.956;5.906;2022-08-25T07:38:18;26.60;99.90
29817;DHT22;16805;52.956;5.906;2022-08-25T07:40:44;26.70;99.90
29817;DHT22;16805;52.956;5.906;2022-08-25T07:43:09;26.80;99.90
29817;DHT22;16805;52.956;5.906;2022-08-25T07:45:37;26.90;99.90
29817;DHT22;16805;52.956;5.906;2022-08-25T07:48:08;27.00;99.90
29817;DHT22;16805;52.956;5.906;2022-08-25T07:50:36;27.10;99.90
29817;DHT22;16805;52.956;5.906;2022-08-25T07:53:04;27.20;99.90
29817;DHT22;16805;52.956;5.906;2022-08-25T07:55:31;27.30;99.90
29817;DHT22;16805;52.956;5.906;2022-08-25T07:57:57;27.40;99.90
29817;DHT22;16805;52.956;5.906;2022-08-25T08:00:25;27.40;99.90
29817;DHT22;16805;52.956;5.906;2022-08-25T08:02:57;27.60;99.90
29817;DHT22;16805;52.956;5.906;2022-08-25T08:05:23;27.70;99.90
29817;DHT22;16805;52.956;5.906;2022-08-25T08:07:49;27.70;99.90
29817;DHT22;16805;52.956;5.906;2022-08-25T08:10:15;27.80;99.90
29817;DHT22;16805;52.956;5.906;2022-08-25T08:12:41;27.80;99.90
29817;DHT22;16805;52.956;5.906;2022-08-25T08:15:07;27.90;99.90
29817;DHT22;16805;52.956;5.906;2022-08-25T08:17:33;28.00;99.90
29817;DHT22;16805;52.956;5.906;2022-08-25T08:19:59;28.10;99.90
29817;DHT22;16805;52.956;5.906;2022-08-25T08:22:26;28.20;99.90
29817;DHT22;16805;52.956;5.906;2022-08-25T08:24:53;28.30;99.90
29817;DHT22;16805;52.956;5.906;2022-08-25T08:27:20;28.40;99.90
29817;DHT22;16805;52.956;5.906;2022-08-25T08:29:45;28.50;99.90
29817;DHT22;16805;52.956;5.906;2022-08-25T08:32:12;28.70;99.90
29817;DHT22;16805;52.956;5.906;2022-08-25T08:34:41;28.80;99.90
29817;DHT22;16805;52.956;5.906;2022-08-25T08:37:07;28.90;99.90
29817;DHT22;16805;52.956;5.906;2022-08-25T08:39:33;28.90;99.90
29817;DHT22;16805;52.956;5.906;2022-08-25T08:45:02;29.10;99.90
29817;DHT22;16805;52.956;5.906;2022-08-25T08:50:36;29.20;99.90
29817;DHT22;16805;52.956;5.906;2022-08-25T08:53:26;29.20;99.90
29817;DHT22;16805;52.956;5.906;2022-08-25T08:56:15;29.20;99.90
29817;DHT22;16805;52.956;5.906;2022-08-25T08:58:49;29.30;99.90
29817;DHT22;16805;52.956;5.906;2022-08-25T09:04:19;29.60;99.90
29817;DHT22;16805;52.956;5.906;2022-08-25T09:06:48;29.80;99.90
29817;DHT22;16805;52.956;5.906;2022-08-25T09:09:23;29.90;99.90
29817;DHT22;16805;52.956;5.906;2022-08-25T09:20:09;30.00;99.20
29817;DHT22;16805;52.956;5.906;2022-08-25T09:22:55;30.00;99.90
29817;DHT22;16805;52.956;5.906;2022-08-25T09:25:26;30.00;99.90
29817;DHT22;16805;52.956;5.906;2022-08-25T09:30:21;30.10;99.70
29817;DHT22;16805;52.956;5.906;2022-08-25T09:32:52;30.20;99.10
29817;DHT22;16805;52.956;5.906;2022-08-25T09:35:27;30.30;99.10
29817;DHT22;16805;52.956;5.906;2022-08-25T09:38:00;30.20;99.60
29817;DHT22;16805;52.956;5.906;2022-08-25T09:40:28;30.30;99.90
29817;DHT22;16805;52.956;5.906;2022-08-25T09:42:57;30.40;98.30
29817;DHT22;16805;52.956;5.906;2022-08-25T09:45:44;30.40;98.60
29817;DHT22;16805;52.956;5.906;2022-08-25T09:48:32;30.40;99.20
29817;DHT22;16805;52.956;5.906;2022-08-25T09:56:19;30.60;96.80
29817;DHT22;16805;52.956;5.906;2022-08-25T09:58:46;30.60;97.40
29817;DHT22;16805;52.956;5.906;2022-08-25T10:01:20;30.60;96.90
29817;DHT22;16805;52.956;5.906;2022-08-25T10:06:22;30.70;96.10
29817;DHT22;16805;52.956;5.906;2022-08-25T10:11:32;30.70;96.70
29817;DHT22;16805;52.956;5.906;2022-08-25T10:14:14;30.70;97.10
29817;DHT22;16805;52.956;5.906;2022-08-25T10:16:41;30.80;95.80
29817;DHT22;16805;52.956;5.906;2022-08-25T10:19:10;30.80;96.40
29817;DHT22;16805;52.956;5.906;2022-08-25T10:21:39;30.80;95.20
29817;DHT22;16805;52.956;5.906;2022-08-25T10:24:06;30.90;94.50
29817;DHT22;16805;52.956;5.906;2022-08-25T10:26:54;30.90;94.60
29817;DHT22;16805;52.956;5.906;2022-08-25T10:32:15;30.90;94.80
29817;DHT22;16805;52.956;5.906;2022-08-25T10:34:47;30.80;95.20
29817;DHT22;16805;52.956;5.906;2022-08-25T10:43:04;31.00;95.10
29817;DHT22;16805;52.956;5.906;2022-08-25T10:45:37;31.00;94.50
29817;DHT22;16805;52.956;5.906;2022-08-25T10:53:44;31.00;94.20
29817;DHT22;16805;52.956;5.906;2022-08-25T10:59:23;31.00;93.80
29817;DHT22;16805;52.956;5.906;2022-08-25T11:07:34;31.00;93.30
29817;DHT22;16805;52.956;5.906;2022-08-25T11:10:11;31.10;94.00
29817;DHT22;16805;52.956;5.906;2022-08-25T11:12:41;31.00;94.60
29817;DHT22;16805;52.956;5.906;2022-08-25T11:15:12;31.00;95.20
29817;DHT22;16805;52.956;5.906;2022-08-25T11:18:08;31.00;93.40
29817;DHT22;16805;52.956;5.906;2022-08-25T11:23:30;31.00;93.70
29817;DHT22;16805;52.956;5.906;2022-08-25T11:26:07;31.00;92.80
29817;DHT22;16805;52.956;5.906;2022-08-25T11:28:53;31.00;93.40
29817;DHT22;16805;52.956;5.906;2022-08-25T11:31:22;31.00;93.10
29817;DHT22;16805;52.956;5.906;2022-08-25T11:33:50;30.90;92.90
29817;DHT22;16805;52.956;5.906;2022-08-25T11:36:24;30.90;93.30
29817;DHT22;16805;52.956;5.906;2022-08-25T11:51:03;30.90;93.60
29817;DHT22;16805;52.956;5.906;2022-08-25T11:53:32;30.90;94.00
29817;DHT22;16805;52.956;5.906;2022-08-25T11:56:10;30.90;93.90
29817;DHT22;16805;52.956;5.906;2022-08-25T12:01:30;30.90;91.80
29817;DHT22;16805;52.956;5.906;2022-08-25T12:04:36;30.90;93.30
29817;DHT22;16805;52.956;5.906;2022-08-25T12:14:53;30.80;93.00
29817;DHT22;16805;52.956;5.906;2022-08-25T12:17:22;30.80;94.20
29817;DHT22;16805;52.956;5.906;2022-08-25T12:19:55;30.70;93.60
29817;DHT22;16805;52.956;5.906;2022-08-25T12:30:26;30.70;92.60
29817;DHT22;16805;52.956;5.906;2022-08-25T12:33:19;30.70;92.80
29817;DHT22;16805;52.956;5.906;2022-08-25T12:36:02;30.80;92.10
29817;DHT22;16805;52.956;5.906;2022-08-25T12:38:47;30.80;93.30
29817;DHT22;16805;52.956;5.906;2022-08-25T12:41:17;30.70;93.40
29817;DHT22;16805;52.956;5.906;2022-08-25T12:43:45;30.70;93.30
29817;DHT22;16805;52.956;5.906;2022-08-25T12:49:28;30.80;94.60
29817;DHT22;16805;52.956;5.906;2022-08-25T12:52:16;30.80;93.90
29817;DHT22;16805;52.956;5.906;2022-08-25T12:54:58;30.80;94.90
29817;DHT22;16805;52.956;5.906;2022-08-25T12:59:57;30.80;94.10
29817;DHT22;16805;52.956;5.906;2022-08-25T13:08:01;30.80;93.30
29817;DHT22;16805;52.956;5.906;2022-08-25T13:10:54;30.80;93.10
29817;DHT22;16805;52.956;5.906;2022-08-25T13:13:48;30.80;92.80
29817;DHT22;16805;52.956;5.906;2022-08-25T13:16:21;30.80;93.10
29817;DHT22;16805;52.956;5.906;2022-08-25T13:18:47;30.80;92.70
29817;DHT22;16805;52.956;5.906;2022-08-25T13:21:24;30.80;92.00
29817;DHT22;16805;52.956;5.906;2022-08-25T13:23:53;30.70;93.50
29817;DHT22;16805;52.956;5.906;2022-08-25T13:26:26;30.70;91.60
29817;DHT22;16805;52.956;5.906;2022-08-25T13:29:11;30.60;92.50
29817;DHT22;16805;52.956;5.906;2022-08-25T13:31:48;30.70;92.00
29817;DHT22;16805;52.956;5.906;2022-08-25T13:34:20;30.70;93.60
29817;DHT22;16805;52.956;5.906;2022-08-25T13:36:48;30.70;94.10
29817;DHT22;16805;52.956;5.906;2022-08-25T13:39:34;30.80;94.00
29817;DHT22;16805;52.956;5.906;2022-08-25T13:42:03;30.70;92.30
29817;DHT22;16805;52.956;5.906;2022-08-25T13:44:35;30.70;92.70
29817;DHT22;16805;52.956;5.906;2022-08-25T13:47:30;30.60;92.30
29817;DHT22;16805;52.956;5.906;2022-08-25T13:50:14;30.60;90.70
29817;DHT22;16805;52.956;5.906;2022-08-25T13:52:40;30.60;91.80
29817;DHT22;16805;52.956;5.906;2022-08-25T13:55:06;30.60;93.30
29817;DHT22;16805;52.956;5.906;2022-08-25T13:57:32;30.60;92.40
29817;DHT22;16805;52.956;5.906;2022-08-25T14:00:07;30.60;92.20
29817;DHT22;16805;52.956;5.906;2022-08-25T14:02:49;30.60;91.80
29817;DHT22;16805;52.956;5.906;2022-08-25T14:05:31;30.60;93.60
29817;DHT22;16805;52.956;5.906;2022-08-25T14:07:58;30.60;93.40
29817;DHT22;16805;52.956;5.906;2022-08-25T14:13:12;30.70;90.90
29817;DHT22;16805;52.956;5.906;2022-08-25T14:15:38;30.70;91.50
29817;DHT22;16805;52.956;5.906;2022-08-25T14:20:33;30.70;93.70
29817;DHT22;16805;52.956;5.906;2022-08-25T14:23:07;30.60;94.00
29817;DHT22;16805;52.956;5.906;2022-08-25T14:25:34;30.70;94.10
29817;DHT22;16805;52.956;5.906;2022-08-25T14:28:05;30.80;93.50
29817;DHT22;16805;52.956;5.906;2022-08-25T14:30:32;30.80;92.80
29817;DHT22;16805;52.956;5.906;2022-08-25T14:32:59;30.70;92.30
29817;DHT22;16805;52.956;5.906;2022-08-25T14:35:26;30.70;92.40
29817;DHT22;16805;52.956;5.906;2022-08-25T14:37:54;30.70;94.00
29817;DHT22;16805;52.956;5.906;2022-08-25T14:40:20;30.70;91.80
29817;DHT22;16805;52.956;5.906;2022-08-25T14:42:47;30.70;93.50
29817;DHT22;16805;52.956;5.906;2022-08-25T14:45:17;30.70;92.80
29817;DHT22;16805;52.956;5.906;2022-08-25T14:47:44;30.70;94.00
29817;DHT22;16805;52.956;5.906;2022-08-25T14:50:12;30.70;93.60
29817;DHT22;16805;52.956;5.906;2022-08-25T14:52:40;30.70;93.60
29817;DHT22;16805;52.956;5.906;2022-08-25T14:55:07;30.70;93.80
29817;DHT22;16805;52.956;5.906;2022-08-25T14:57:33;30.70;92.70
29817;DHT22;16805;52.956;5.906;2022-08-25T15:00:00;30.60;93.00
29817;DHT22;16805;52.956;5.906;2022-08-25T15:02:25;30.70;93.30
29817;DHT22;16805;52.956;5.906;2022-08-25T15:04:56;30.70;93.00
29817;DHT22;16805;52.956;5.906;2022-08-25T15:07:30;30.70;93.20
29817;DHT22;16805;52.956;5.906;2022-08-25T15:10:15;30.70;94.70
29817;DHT22;16805;52.956;5.906;2022-08-25T15:12:40;30.60;94.60
29817;DHT22;16805;52.956;5.906;2022-08-25T15:15:06;30.60;94.30
29817;DHT22;16805;52.956;5.906;2022-08-25T15:17:34;30.70;94.60
29817;DHT22;16805;52.956;5.906;2022-08-25T15:20:02;30.60;93.90
29817;DHT22;16805;52.956;5.906;2022-08-25T15:22:28;30.60;95.10
29817;DHT22;16805;52.956;5.906;2022-08-25T15:24:54;30.60;94.30
29817;DHT22;16805;52.956;5.906;2022-08-25T15:27:20;30.60;94.10
29817;DHT22;16805;52.956;5.906;2022-08-25T15:29:47;30.60;94.40
29817;DHT22;16805;52.956;5.906;2022-08-25T15:32:12;30.50;95.20
29817;DHT22;16805;52.956;5.906;2022-08-25T15:34:39;30.60;94.80
29817;DHT22;16805;52.956;5.906;2022-08-25T15:37:11;30.60;94.90
29817;DHT22;16805;52.956;5.906;2022-08-25T15:39:38;30.60;94.70
29817;DHT22;16805;52.956;5.906;2022-08-25T15:42:04;30.50;96.20
29817;DHT22;16805;52.956;5.906;2022-08-25T15:44:30;30.60;96.30
29817;DHT22;16805;52.956;5.906;2022-08-25T15:46:57;30.50;95.30
29817;DHT22;16805;52.956;5.906;2022-08-25T15:49:23;30.50;93.90
29817;DHT22;16805;52.956;5.906;2022-08-25T15:51:50;30.50;96.20
29817;DHT22;16805;52.956;5.906;2022-08-25T15:54:16;30.40;95.40
29817;DHT22;16805;52.956;5.906;2022-08-25T15:56:42;30.50;95.70
29817;DHT22;16805;52.956;5.906;2022-08-25T15:59:08;30.50;95.70
29817;DHT22;16805;52.956;5.906;2022-08-25T16:01:34;30.40;95.20
29817;DHT22;16805;52.956;5.906;2022-08-25T16:04:00;30.50;95.10
29817;DHT22;16805;52.956;5.906;2022-08-25T16:06:26;30.40;94.50
29817;DHT22;16805;52.956;5.906;2022-08-25T16:08:52;30.40;93.60
29817;DHT22;16805;52.956;5.906;2022-08-25T16:11:21;30.40;95.80
29817;DHT22;16805;52.956;5.906;2022-08-25T16:13:49;30.40;96.70
29817;DHT22;16805;52.956;5.906;2022-08-25T16:16:16;30.40;97.10
29817;DHT22;16805;52.956;5.906;2022-08-25T16:18:43;30.40;95.40
29817;DHT22;16805;52.956;5.906;2022-08-25T16:21:10;30.40;94.10
29817;DHT22;16805;52.956;5.906;2022-08-25T16:23:36;30.40;94.80
29817;DHT22;16805;52.956;5.906;2022-08-25T16:26:06;30.40;97.40
29817;DHT22;16805;52.956;5.906;2022-08-25T16:28:37;30.40;96.10
29817;DHT22;16805;52.956;5.906;2022-08-25T16:31:03;30.40;97.80
29817;DHT22;16805;52.956;5.906;2022-08-25T16:33:30;30.30;97.10
29817;DHT22;16805;52.956;5.906;2022-08-25T16:36:09;30.30;96.50
29817;DHT22;16805;52.956;5.906;2022-08-25T16:38:36;30.30;98.10
29817;DHT22;16805;52.956;5.906;2022-08-25T16:41:09;30.30;97.40
29817;DHT22;16805;52.956;5.906;2022-08-25T16:43:35;30.20;97.20
29817;DHT22;16805;52.956;5.906;2022-08-25T16:46:04;30.20;98.40
29817;DHT22;16805;52.956;5.906;2022-08-25T16:48:31;30.20;98.60
29817;DHT22;16805;52.956;5.906;2022-08-25T16:50:57;30.20;98.60
29817;DHT22;16805;52.956;5.906;2022-08-25T16:53:23;30.20;98.70
29817;DHT22;16805;52.956;5.906;2022-08-25T16:56:07;30.20;98.90
29817;DHT22;16805;52.956;5.906;2022-08-25T16:58:33;30.20;98.80
29817;DHT22;16805;52.956;5.906;2022-08-25T17:01:11;30.20;98.90
29817;DHT22;16805;52.956;5.906;2022-08-25T17:03:38;30.10;98.70
29817;DHT22;16805;52.956;5.906;2022-08-25T17:06:05;30.10;99.10
29817;DHT22;16805;52.956;5.906;2022-08-25T17:08:31;30.10;99.00
29817;DHT22;16805;52.956;5.906;2022-08-25T17:11:12;30.10;99.10
29817;DHT22;16805;52.956;5.906;2022-08-25T17:13:43;30.10;99.00
29817;DHT22;16805;52.956;5.906;2022-08-25T17:16:10;30.00;98.70
29817;DHT22;16805;52.956;5.906;2022-08-25T17:18:55;30.00;98.20
29817;DHT22;16805;52.956;5.906;2022-08-25T17:21:23;30.00;98.50
29817;DHT22;16805;52.956;5.906;2022-08-25T17:23:52;29.90;98.00
29817;DHT22;16805;52.956;5.906;2022-08-25T17:26:18;29.90;98.30
29817;DHT22;16805;52.956;5.906;2022-08-25T17:28:44;29.90;98.40
29817;DHT22;16805;52.956;5.906;2022-08-25T17:31:12;29.90;98.40